createdAt,value
2023-05-07T00:00:52.249Z,101813.34
2023-05-07T00:03:20.022Z,101811.09
2023-05-07T00:05:47.327Z,101816.22
2023-05-07T00:08:13.644Z,101807.50
2023-05-07T00:10:40.097Z,101813.63
2023-05-07T00:13:06.526Z,101813.66
2023-05-07T00:15:32.875Z,101823.16
2023-05-07T00:18:00.325Z,101822.97
2023-05-07T00:20:26.896Z,101822.19
2023-05-07T00:22:53.367Z,101832.56
2023-05-07T00:25:20.657Z,101823.88
2023-05-07T00:27:47.087Z,101831.75
2023-05-07T00:30:13.840Z,101831.63
2023-05-07T00:32:40.305Z,101831.69
2023-05-07T00:35:07.484Z,101822.19
2023-05-07T00:37:33.853Z,101820.53
2023-05-07T00:40:00.338Z,101824.88
2023-05-07T00:42:26.758Z,101819.72
2023-05-07T00:44:53.044Z,101819.69
2023-05-07T00:47:19.436Z,101829.25
2023-05-07T00:49:46.508Z,101822.19
2023-05-07T00:52:16.469Z,101822.16
2023-05-07T00:54:43.788Z,101819.53
2023-05-07T00:57:12.025Z,101822.06
2023-05-07T00:59:39.120Z,101819.50
2023-05-07T01:02:05.470Z,101829.03
2023-05-07T01:04:31.872Z,101820.41
2023-05-07T01:07:00.658Z,101824.69
2023-05-07T01:09:27.819Z,101822.06
2023-05-07T01:11:54.974Z,101825.50
2023-05-07T01:14:21.601Z,101821.13
2023-05-07T01:16:49.040Z,101826.34
2023-05-07T01:19:19.101Z,101832.41
2023-05-07T01:21:48.897Z,101832.44
2023-05-07T01:24:16.052Z,101818.56
2023-05-07T01:26:45.370Z,101818.59
2023-05-07T01:29:11.898Z,101819.38
2023-05-07T01:31:39.471Z,101824.56
2023-05-07T01:34:09.357Z,101826.34
2023-05-07T01:36:37.973Z,101815.13
2023-05-07T01:39:06.441Z,101810.84
2023-05-07T01:41:32.869Z,101809.13
2023-05-07T01:44:00.141Z,101811.66
2023-05-07T01:46:27.405Z,101812.13
2023-05-07T01:48:54.812Z,101818.66
2023-05-07T01:51:23.072Z,101814.88
2023-05-07T01:53:51.671Z,101826.03
2023-05-07T01:56:19.025Z,101824.31
2023-05-07T01:58:48.737Z,101838.19
2023-05-07T02:01:15.285Z,101828.81
2023-05-07T02:03:41.762Z,101829.59
2023-05-07T02:06:08.832Z,101829.66
2023-05-07T02:08:35.336Z,101829.72
2023-05-07T02:11:02.174Z,101826.34
2023-05-07T02:13:34.321Z,101823.75
2023-05-07T02:16:00.703Z,101818.59
2023-05-07T02:18:27.521Z,101817.00
2023-05-07T02:20:53.819Z,101816.84
2023-05-07T02:23:20.241Z,101826.47
2023-05-07T02:25:46.920Z,101827.31
2023-05-07T02:28:13.590Z,101830.75
2023-05-07T02:30:40.157Z,101826.50
2023-05-07T02:33:07.269Z,101829.41
2023-05-07T02:35:33.587Z,101832.09
2023-05-07T02:37:59.862Z,101844.34
2023-05-07T02:40:26.174Z,101836.53
2023-05-07T02:42:52.464Z,101840.03
2023-05-07T02:45:18.796Z,101838.34
2023-05-07T02:47:45.413Z,101836.56
2023-05-07T02:50:12.024Z,101843.47
2023-05-07T02:52:38.450Z,101844.47
2023-05-07T02:55:05.246Z,101851.00
2023-05-07T02:57:31.637Z,101858.72
2023-05-07T02:59:59.435Z,101855.25
2023-05-07T03:02:25.770Z,101855.16
2023-05-07T03:04:52.640Z,101859.47
2023-05-07T03:07:18.967Z,101855.13
2023-05-07T03:09:45.236Z,101856.06
2023-05-07T03:12:11.506Z,101847.41
2023-05-07T03:14:37.815Z,101849.09
2023-05-07T03:17:04.186Z,101844.81
2023-05-07T03:19:31.522Z,101849.97
2023-05-07T03:21:57.861Z,101835.31
2023-05-07T03:24:24.154Z,101842.19
2023-05-07T03:26:50.623Z,101848.41
2023-05-07T03:29:16.941Z,101844.94
2023-05-07T03:31:43.671Z,101850.09
2023-05-07T03:34:10.153Z,101847.47
2023-05-07T03:36:36.522Z,101850.97
2023-05-07T03:39:02.861Z,101851.88
2023-05-07T03:41:30.760Z,101855.28
2023-05-07T03:43:57.206Z,101851.84
2023-05-07T03:46:23.514Z,101858.78
2023-05-07T03:48:49.932Z,101847.53
2023-05-07T03:51:16.268Z,101853.63
2023-05-07T03:53:42.561Z,101850.13
2023-05-07T03:56:08.840Z,101855.38
2023-05-07T03:58:35.484Z,101853.66
2023-05-07T04:01:01.986Z,101853.69
2023-05-07T04:03:28.454Z,101864.06
2023-05-07T04:05:54.870Z,101865.78
2023-05-07T04:08:21.142Z,101866.66
2023-05-07T04:10:47.491Z,101866.59
2023-05-07T04:13:13.926Z,101867.44
2023-05-07T04:15:40.251Z,101870.03
2023-05-07T04:18:06.573Z,101877.00
2023-05-07T04:20:35.553Z,101882.13
2023-05-07T04:23:01.873Z,101882.09
2023-05-07T04:25:28.438Z,101879.53
2023-05-07T04:27:56.673Z,101878.66
2023-05-07T04:30:24.314Z,101880.41
2023-05-07T04:32:50.709Z,101876.09
2023-05-07T04:35:17.598Z,101883.13
2023-05-07T04:37:44.026Z,101885.69
2023-05-07T04:40:11.219Z,101880.47
2023-05-07T04:42:37.821Z,101879.63
2023-05-07T04:45:06.017Z,101879.56
2023-05-07T04:47:32.365Z,101879.56
2023-05-07T04:49:59.170Z,101889.22
2023-05-07T04:52:27.224Z,101891.72
2023-05-07T04:54:53.837Z,101880.50
2023-05-07T04:57:20.250Z,101883.13
2023-05-07T04:59:46.686Z,101881.38
2023-05-07T05:02:12.964Z,101889.13
2023-05-07T05:04:39.330Z,101887.41
2023-05-07T05:07:05.694Z,101900.41
2023-05-07T05:09:31.968Z,101902.13
2023-05-07T05:11:58.382Z,101905.63
2023-05-07T05:14:24.686Z,101906.56
2023-05-07T05:16:50.987Z,101904.03
2023-05-07T05:19:17.305Z,101905.75
2023-05-07T05:21:43.641Z,101905.75
2023-05-07T05:24:09.974Z,101914.41
2023-05-07T05:26:36.327Z,101916.06
2023-05-07T05:29:02.640Z,101908.25
2023-05-07T05:31:29.113Z,101905.59
2023-05-07T05:33:55.491Z,101902.97
2023-05-07T05:36:21.874Z,101907.31
2023-05-07T05:38:48.198Z,101905.63
2023-05-07T05:41:14.641Z,101902.22
2023-05-07T05:43:40.896Z,101901.38
2023-05-07T05:46:07.309Z,101898.81
2023-05-07T05:48:33.657Z,101897.09
2023-05-07T05:50:59.955Z,101902.31
2023-05-07T05:53:26.237Z,101899.69
2023-05-07T05:55:52.555Z,101907.59
2023-05-07T05:58:18.983Z,101907.66
2023-05-07T06:00:49.127Z,101918.03
2023-05-07T06:03:15.540Z,101912.03
2023-05-07T06:05:41.913Z,101914.63
2023-05-07T06:08:08.714Z,101918.13
2023-05-07T06:10:37.288Z,101914.72
2023-05-07T06:13:03.644Z,101915.59
2023-05-07T06:15:29.976Z,101910.38
2023-05-07T06:17:58.325Z,101911.38
2023-05-07T06:20:24.686Z,101904.41
2023-05-07T06:22:51.033Z,101911.38
2023-05-07T06:25:17.388Z,101896.66
2023-05-07T06:27:43.673Z,101900.19
2023-05-07T06:30:10.559Z,101891.59
2023-05-07T06:32:37.601Z,101902.06
2023-05-07T06:35:04.183Z,101903.88
2023-05-07T06:37:30.443Z,101907.38
2023-05-07T06:39:59.324Z,101903.00
2023-05-07T06:42:26.358Z,101902.13
2023-05-07T06:44:52.617Z,101909.09
2023-05-07T06:47:19.016Z,101903.06
2023-05-07T06:49:45.551Z,101899.59
2023-05-07T06:52:11.861Z,101907.41
2023-05-07T06:54:38.238Z,101903.94
2023-05-07T06:57:04.521Z,101901.31
2023-05-07T06:59:30.810Z,101895.28
2023-05-07T07:01:57.156Z,101906.50
2023-05-07T07:04:24.809Z,101910.00
2023-05-07T07:06:53.272Z,101905.75
2023-05-07T07:09:23.386Z,101906.66
2023-05-07T07:11:50.443Z,101908.41
2023-05-07T07:14:16.858Z,101906.66
2023-05-07T07:16:43.164Z,101906.59
2023-05-07T07:19:09.495Z,101909.16
2023-05-07T07:21:35.756Z,101907.47
2023-05-07T07:24:02.062Z,101916.16
2023-05-07T07:26:28.701Z,101917.88
2023-05-07T07:28:55.179Z,101910.03
2023-05-07T07:31:21.589Z,101913.63
2023-05-07T07:33:47.950Z,101901.44
2023-05-07T07:36:14.213Z,101911.81
2023-05-07T07:38:40.533Z,101909.28
2023-05-07T07:41:09.422Z,101899.78
2023-05-07T07:43:36.414Z,101898.06
2023-05-07T07:46:03.224Z,101902.41
2023-05-07T07:48:29.677Z,101899.84
2023-05-07T07:50:56.002Z,101904.19
2023-05-07T07:53:22.333Z,101905.91
2023-05-07T07:55:48.650Z,101908.59
2023-05-07T07:58:14.920Z,101902.59
2023-05-07T08:00:41.310Z,101908.66
2023-05-07T08:03:10.908Z,101913.88
2023-05-07T08:05:37.522Z,101912.09
2023-05-07T08:08:04.056Z,101916.44
2023-05-07T08:10:30.520Z,101912.06
2023-05-07T08:12:56.937Z,101931.06
2023-05-07T08:15:23.276Z,101918.88
2023-05-07T08:17:49.672Z,101927.59
2023-05-07T08:20:15.995Z,101934.56
2023-05-07T08:22:42.361Z,101927.59
2023-05-07T08:25:09.161Z,101924.09
2023-05-07T08:27:35.444Z,101934.53
2023-05-07T08:30:02.223Z,101932.72
2023-05-07T08:32:28.713Z,101931.94
2023-05-07T08:34:55.015Z,101932.84
2023-05-07T08:37:21.569Z,101932.94
2023-05-07T08:39:47.885Z,101925.97
2023-05-07T08:42:17.418Z,101926.94
2023-05-07T08:44:47.944Z,101916.56
2023-05-07T08:47:14.350Z,101923.53
2023-05-07T08:49:40.887Z,101935.72
2023-05-07T08:52:09.314Z,101926.97
2023-05-07T08:54:38.094Z,101927.84
2023-05-07T08:57:04.482Z,101933.91
2023-05-07T08:59:30.934Z,101932.16
2023-05-07T09:01:57.264Z,101937.38
2023-05-07T09:04:23.753Z,101940.84
2023-05-07T09:06:52.109Z,101940.88
2023-05-07T09:09:19.828Z,101936.53
2023-05-07T09:11:46.215Z,101937.44
2023-05-07T09:14:12.552Z,101945.31
2023-05-07T09:16:39.768Z,101949.59
2023-05-07T09:19:06.226Z,101947.84
2023-05-07T09:21:32.612Z,101947.00
2023-05-07T09:23:58.928Z,101945.31
2023-05-07T09:26:25.967Z,101950.56
2023-05-07T09:28:52.630Z,101953.16
2023-05-07T09:31:21.111Z,101959.28
2023-05-07T09:33:48.055Z,101953.16
2023-05-07T09:36:14.828Z,101960.09
2023-05-07T09:38:41.300Z,101953.16
2023-05-07T09:41:12.778Z,101954.06
2023-05-07T09:43:41.182Z,101953.13
2023-05-07T09:46:12.264Z,101946.22
2023-05-07T09:48:43.269Z,101946.22
2023-05-07T09:51:22.573Z,101953.19
2023-05-07T09:53:49.453Z,101955.78
2023-05-07T09:56:17.013Z,101956.66
2023-05-07T09:58:44.454Z,101947.09
2023-05-07T10:01:13.267Z,101950.56
2023-05-07T10:03:44.502Z,101960.19
2023-05-07T10:06:11.570Z,101949.75
2023-05-07T10:08:38.473Z,101945.41
2023-05-07T10:11:06.846Z,101944.53
2023-05-07T10:13:37.422Z,101944.53
2023-05-07T10:16:06.885Z,101941.03
2023-05-07T10:18:34.149Z,101942.72
2023-05-07T10:21:21.988Z,101940.94
2023-05-07T10:23:58.601Z,101938.34
2023-05-07T10:26:28.061Z,101941.78
2023-05-07T10:29:00.671Z,101945.22
2023-05-07T10:31:51.516Z,101942.66
2023-05-07T10:34:24.045Z,101939.16
2023-05-07T10:36:52.747Z,101945.25
2023-05-07T10:39:21.487Z,101937.31
2023-05-07T10:41:48.148Z,101930.28
2023-05-07T10:44:27.460Z,101927.59
2023-05-07T10:47:12.185Z,101930.22
2023-05-07T10:49:44.358Z,101937.97
2023-05-07T10:52:26.889Z,101934.53
2023-05-07T10:55:18.722Z,101929.94
2023-05-07T10:57:45.286Z,101920.28
2023-05-07T11:00:22.427Z,101925.38
2023-05-07T11:03:01.324Z,101920.91
2023-05-07T11:05:32.978Z,101921.94
2023-05-07T11:08:04.660Z,101918.66
2023-05-07T11:10:57.216Z,101922.28
2023-05-07T11:13:56.162Z,101916.25
2023-05-07T11:16:24.390Z,101916.16
2023-05-07T11:18:53.762Z,101908.22
2023-05-07T11:21:40.018Z,101919.94
2023-05-07T11:24:11.674Z,101913.47
2023-05-07T11:26:44.373Z,101910.50
2023-05-07T11:29:21.749Z,101914.84
2023-05-07T11:31:56.076Z,101917.53
2023-05-07T11:34:27.665Z,101913.16
2023-05-07T11:36:54.394Z,101910.41
2023-05-07T11:39:42.360Z,101905.00
2023-05-07T11:42:26.422Z,101893.44
2023-05-07T11:44:52.713Z,101901.09
2023-05-07T11:47:19.974Z,101900.16
2023-05-07T11:49:50.673Z,101894.63
2023-05-07T11:52:18.170Z,101896.72
2023-05-07T11:54:51.129Z,101899.09
2023-05-07T11:57:17.852Z,101893.78
2023-05-07T11:59:45.361Z,101893.81
2023-05-07T12:02:11.722Z,101888.75
2023-05-07T12:04:39.230Z,101893.59
2023-05-07T12:07:05.588Z,101880.44
2023-05-07T12:09:34.785Z,101880.84
2023-05-07T12:12:05.294Z,101884.00
2023-05-07T12:14:32.455Z,101880.19
2023-05-07T12:17:00.000Z,101882.66
2023-05-07T12:19:26.439Z,101877.97
2023-05-07T12:21:53.094Z,101878.56
2023-05-07T12:24:21.972Z,101875.97
2023-05-07T12:26:49.646Z,101887.97
2023-05-07T12:29:16.179Z,101881.69
2023-05-07T12:31:43.251Z,101874.91
2023-05-07T12:34:12.112Z,101881.28
2023-05-07T12:36:39.975Z,101879.78
2023-05-07T12:39:07.630Z,101884.19
2023-05-07T12:41:52.637Z,101893.84
2023-05-07T12:44:19.034Z,101885.56
2023-05-07T12:46:45.581Z,101886.22
2023-05-07T12:49:13.054Z,101882.09
2023-05-07T12:51:39.420Z,101888.28
2023-05-07T12:54:05.849Z,101897.66
2023-05-07T12:56:32.598Z,101888.06
2023-05-07T12:58:59.177Z,101891.03
2023-05-07T13:01:30.696Z,101894.88
2023-05-07T13:04:01.097Z,101880.53
2023-05-07T13:06:27.572Z,101883.16
2023-05-07T13:08:53.923Z,101886.34
2023-05-07T13:11:20.240Z,101889.03
2023-05-07T13:13:46.518Z,101896.13
2023-05-07T13:16:13.266Z,101880.38
2023-05-07T13:18:41.415Z,101879.47
2023-05-07T13:21:08.024Z,101879.13
2023-05-07T13:23:34.935Z,101867.38
2023-05-07T13:26:04.224Z,101877.50
2023-05-07T13:28:35.149Z,101873.09
2023-05-07T13:31:01.461Z,101867.28
2023-05-07T13:33:27.745Z,101868.19
2023-05-07T13:35:54.173Z,101867.13
2023-05-07T13:38:20.909Z,101861.06
2023-05-07T13:40:47.908Z,101872.19
2023-05-07T13:43:14.331Z,101866.63
2023-05-07T13:45:40.952Z,101861.88
2023-05-07T13:48:07.426Z,101865.88
2023-05-07T13:50:33.823Z,101861.75
2023-05-07T13:53:00.173Z,101853.44
2023-05-07T13:55:26.719Z,101859.25
2023-05-07T13:58:01.759Z,101852.25
2023-05-07T14:00:28.974Z,101858.66
2023-05-07T14:02:56.475Z,101855.66
2023-05-07T14:05:26.602Z,101862.03
2023-05-07T14:07:53.548Z,101869.88
2023-05-07T14:10:20.471Z,101873.88
2023-05-07T14:12:47.582Z,101861.09
2023-05-07T14:15:14.716Z,101863.16
2023-05-07T14:17:41.059Z,101858.69
2023-05-07T14:20:08.241Z,101864.72
2023-05-07T14:22:34.561Z,101861.84
2023-05-07T14:25:14.655Z,101853.50
2023-05-07T14:27:41.199Z,101868.22
2023-05-07T14:30:07.918Z,101862.94
2023-05-07T14:32:34.987Z,101870.78
2023-05-07T14:35:01.372Z,101865.41
2023-05-07T14:37:27.920Z,101853.69
2023-05-07T14:39:54.293Z,101856.56
2023-05-07T14:42:21.058Z,101852.72
2023-05-07T14:44:49.138Z,101849.69
2023-05-07T14:47:17.571Z,101860.06
2023-05-07T14:49:46.040Z,101857.34
2023-05-07T14:52:12.809Z,101857.59
2023-05-07T14:54:39.620Z,101854.78
2023-05-07T14:57:07.723Z,101862.44
2023-05-07T14:59:34.494Z,101863.72
2023-05-07T15:02:01.636Z,101855.03
2023-05-07T15:04:29.489Z,101857.75
2023-05-07T15:06:56.956Z,101852.41
2023-05-07T15:09:23.386Z,101862.22
2023-05-07T15:11:49.694Z,101854.97
2023-05-07T15:14:16.244Z,101853.34
2023-05-07T15:16:42.638Z,101852.88
2023-05-07T15:19:09.281Z,101858.06
2023-05-07T15:21:37.034Z,101858.50
2023-05-07T15:24:03.674Z,101858.50
2023-05-07T15:26:31.410Z,101861.47
2023-05-07T15:28:58.190Z,101855.00
2023-05-07T15:31:26.048Z,101851.78
2023-05-07T15:33:55.506Z,101854.50
2023-05-07T15:36:21.870Z,101857.59
2023-05-07T15:38:48.197Z,101859.16
2023-05-07T15:41:15.008Z,101851.22
2023-05-07T15:43:46.902Z,101858.75
2023-05-07T15:46:13.373Z,101853.34
2023-05-07T15:48:39.754Z,101857.00
2023-05-07T15:51:08.049Z,101855.81
2023-05-07T15:53:34.724Z,101848.16
2023-05-07T15:56:01.258Z,101853.19
2023-05-07T15:58:27.556Z,101857.63
2023-05-07T16:00:54.058Z,101853.97
2023-05-07T16:03:22.185Z,101862.03
2023-05-07T16:05:48.669Z,101861.16
2023-05-07T16:08:15.188Z,101866.56
2023-05-07T16:10:41.484Z,101858.69
2023-05-07T16:13:07.831Z,101856.69
2023-05-07T16:15:34.227Z,101852.41
2023-05-07T16:18:00.832Z,101853.44
2023-05-07T16:20:31.499Z,101856.97
2023-05-07T16:22:58.656Z,101856.13
2023-05-07T16:25:24.983Z,101856.59
2023-05-07T16:27:53.483Z,101854.56
2023-05-07T16:30:19.826Z,101853.00
2023-05-07T16:32:46.118Z,101851.44
2023-05-07T16:35:12.714Z,101856.88
2023-05-07T16:37:42.370Z,101850.22
2023-05-07T16:40:09.343Z,101863.41
2023-05-07T16:42:36.373Z,101855.81
2023-05-07T16:45:04.461Z,101855.19
2023-05-07T16:47:31.467Z,101856.09
2023-05-07T16:49:59.966Z,101853.72
2023-05-07T16:52:27.542Z,101856.53
2023-05-07T16:54:58.127Z,101861.66
2023-05-07T16:57:25.510Z,101856.41
2023-05-07T16:59:52.554Z,101846.72
2023-05-07T17:02:19.602Z,101856.53
2023-05-07T17:04:45.900Z,101857.28
2023-05-07T17:07:12.401Z,101853.97
2023-05-07T17:09:38.684Z,101856.47
2023-05-07T17:12:05.445Z,101855.50
2023-05-07T17:14:31.761Z,101853.31
2023-05-07T17:16:58.062Z,101855.88
2023-05-07T17:19:24.341Z,101852.56
2023-05-07T17:21:50.655Z,101850.13
2023-05-07T17:24:17.428Z,101847.69
2023-05-07T17:26:43.739Z,101852.16
2023-05-07T17:29:10.139Z,101865.28
2023-05-07T17:31:36.549Z,101863.72
2023-05-07T17:34:03.182Z,101868.09
2023-05-07T17:36:29.472Z,101870.03
2023-05-07T17:38:55.818Z,101866.56
2023-05-07T17:41:22.598Z,101872.00
2023-05-07T17:43:48.914Z,101865.13
2023-05-07T17:46:15.317Z,101869.38
2023-05-07T17:48:41.837Z,101867.81
2023-05-07T17:51:09.588Z,101874.06
2023-05-07T17:53:36.057Z,101877.75
2023-05-07T17:56:02.428Z,101876.81
2023-05-07T17:58:28.841Z,101880.53
2023-05-07T18:00:55.497Z,101881.31
2023-05-07T18:03:24.469Z,101878.72
2023-05-07T18:05:51.079Z,101887.31
2023-05-07T18:08:17.442Z,101887.47
2023-05-07T18:10:43.860Z,101888.41
2023-05-07T18:13:10.403Z,101886.78
2023-05-07T18:15:36.835Z,101891.13
2023-05-07T18:18:03.432Z,101893.88
2023-05-07T18:20:29.915Z,101888.56
2023-05-07T18:22:56.492Z,101899.16
2023-05-07T18:25:23.165Z,101897.44
2023-05-07T18:27:49.494Z,101894.75
2023-05-07T18:30:15.783Z,101901.00
2023-05-07T18:32:42.174Z,101904.44
2023-05-07T18:35:08.717Z,101908.97
2023-05-07T18:37:35.346Z,101917.75
2023-05-07T18:40:03.870Z,101916.94
2023-05-07T18:42:31.632Z,101922.25
2023-05-07T18:44:59.214Z,101920.56
2023-05-07T18:47:25.798Z,101918.00
2023-05-07T18:49:52.228Z,101915.47
2023-05-07T18:52:21.698Z,101921.56
2023-05-07T18:54:48.294Z,101924.16
2023-05-07T18:57:14.856Z,101927.69
2023-05-07T18:59:41.241Z,101932.06
2023-05-07T19:02:07.523Z,101933.06
2023-05-07T19:04:34.118Z,101933.03
2023-05-07T19:07:00.497Z,101926.13
2023-05-07T19:09:26.954Z,101934.03
2023-05-07T19:11:53.335Z,101934.94
2023-05-07T19:14:19.606Z,101935.00
2023-05-07T19:16:45.902Z,101940.28
2023-05-07T19:19:12.157Z,101946.44
2023-05-07T19:21:38.522Z,101947.28
2023-05-07T19:24:05.139Z,101955.19
2023-05-07T19:26:31.435Z,101957.91
2023-05-07T19:31:27.211Z,101959.72
2023-05-07T19:33:54.418Z,101968.47
2023-05-07T19:36:20.738Z,101974.66
2023-05-07T19:38:49.708Z,101974.69
2023-05-07T19:41:16.026Z,101979.94
2023-05-07T19:43:42.328Z,101985.19
2023-05-07T19:46:08.783Z,101982.56
2023-05-07T19:48:35.102Z,101980.88
2023-05-07T19:51:01.507Z,101985.28
2023-05-07T19:53:29.929Z,101995.81
2023-05-07T19:56:05.910Z,101989.72
2023-05-07T19:58:32.431Z,101995.84
2023-05-07T20:00:58.790Z,101991.47
2023-05-07T20:03:25.146Z,101994.94
2023-05-07T20:05:51.661Z,101994.09
2023-05-07T20:08:17.974Z,102006.28
2023-05-07T20:10:44.299Z,102007.16
2023-05-07T20:13:11.214Z,102003.69
2023-05-07T20:15:38.468Z,102015.00
2023-05-07T20:18:04.984Z,102009.78
2023-05-07T20:20:31.500Z,102006.28
2023-05-07T20:22:57.779Z,102009.78
2023-05-07T20:25:24.253Z,102013.22
2023-05-07T20:27:50.593Z,102023.66
2023-05-07T20:30:18.789Z,102024.47
2023-05-07T20:32:45.292Z,102025.31
2023-05-07T20:35:11.755Z,102029.63
2023-05-07T20:37:39.557Z,102039.09
2023-05-07T20:40:07.568Z,102042.56
2023-05-07T20:42:34.009Z,102045.09
2023-05-07T20:45:02.781Z,102039.84
2023-05-07T20:47:32.411Z,102046.75
2023-05-07T20:49:58.720Z,102046.69
2023-05-07T20:52:25.287Z,102051.00
2023-05-07T20:54:51.789Z,102062.19
2023-05-07T20:57:19.603Z,102062.19
2023-05-07T20:59:46.197Z,102062.19
2023-05-07T21:02:12.553Z,102061.34
2023-05-07T21:04:38.907Z,102053.66
2023-05-07T21:07:05.312Z,102053.72
2023-05-07T21:09:31.600Z,102044.19
2023-05-07T21:11:58.431Z,102049.47
2023-05-07T21:14:24.865Z,102044.31
2023-05-07T21:16:51.276Z,102049.56
2023-05-07T21:19:17.594Z,102043.50
2023-05-07T21:21:43.847Z,102046.09
2023-05-07T21:24:11.059Z,102047.88
2023-05-07T21:26:37.422Z,102048.75
2023-05-07T21:29:03.759Z,102043.53
2023-05-07T21:31:30.073Z,102053.94
2023-05-07T21:33:57.260Z,102056.56
2023-05-07T21:36:23.585Z,102051.34
2023-05-07T21:38:50.087Z,102051.38
2023-05-07T21:41:16.846Z,102050.50
2023-05-07T21:43:43.141Z,102051.31
2023-05-07T21:46:10.818Z,102046.16
2023-05-07T21:48:38.499Z,102049.66
2023-05-07T21:51:08.192Z,102058.31
2023-05-07T21:53:35.529Z,102061.81
2023-05-07T21:56:04.978Z,102057.50
2023-05-07T21:58:31.679Z,102067.97
2023-05-07T22:00:58.514Z,102069.66
2023-05-07T22:03:25.094Z,102072.25
2023-05-07T22:05:51.524Z,102074.88
2023-05-07T22:08:17.822Z,102080.97
2023-05-07T22:10:44.629Z,102080.09
2023-05-07T22:13:11.006Z,102079.19
2023-05-07T22:15:45.524Z,102080.09
2023-05-07T22:18:19.959Z,102084.44
2023-05-07T22:20:46.245Z,102084.44
2023-05-07T22:23:12.588Z,102084.44
2023-05-07T22:25:38.927Z,102084.44
2023-05-07T22:28:05.766Z,102087.88
2023-05-07T22:30:32.094Z,102097.47
2023-05-07T22:32:58.444Z,102095.72
2023-05-07T22:35:24.843Z,102100.06
2023-05-07T22:37:51.113Z,102100.88
2023-05-07T22:40:17.630Z,102100.88
2023-05-07T22:42:44.108Z,102101.72
2023-05-07T22:45:10.943Z,102102.56
2023-05-07T22:47:37.409Z,102101.69
2023-05-07T22:50:06.032Z,102112.09
2023-05-07T22:52:33.841Z,102113.84
2023-05-07T22:55:00.228Z,102107.72
2023-05-07T22:57:26.586Z,102106.78
2023-05-07T22:59:56.758Z,102105.88
2023-05-07T23:02:23.352Z,102110.25
2023-05-07T23:04:49.839Z,102108.53
2023-05-07T23:07:16.206Z,102106.81
2023-05-07T23:09:42.442Z,102108.53
2023-05-07T23:12:09.502Z,102110.19
2023-05-07T23:14:35.797Z,102107.59
2023-05-07T23:17:02.579Z,102109.31
2023-05-07T23:19:28.933Z,102111.06
2023-05-07T23:21:55.275Z,102117.97
2023-05-07T23:24:21.560Z,102113.59
2023-05-07T23:26:47.845Z,102113.44
2023-05-07T23:29:14.105Z,102122.19
2023-05-07T23:31:40.711Z,102117.84
2023-05-07T23:34:07.062Z,102120.38
2023-05-07T23:36:33.408Z,102128.19
2023-05-07T23:38:59.713Z,102121.28
2023-05-07T23:41:26.062Z,102121.19
2023-05-07T23:43:52.483Z,102112.44
2023-05-07T23:46:19.031Z,102117.63
2023-05-07T23:48:45.383Z,102123.66
2023-05-07T23:51:11.652Z,102123.72
2023-05-07T23:53:37.954Z,102123.66
2023-05-07T23:56:04.588Z,102122.72
2023-05-07T23:58:30.887Z,102129.72
